Amsterdam Airport


Codes: FAAM/
Name: Amsterdam Airport
City: Amsterdam
Country: South Africa
Elevation: 4310 ft.

Photos at Amsterdam Airport


   Photos courtesy of SpottingLog. You can add your own sightings and photos by signing up for a free trial today.



No photos found.

Weather at Amsterdam Airport


Time (UTC)DescriptionTempratureWindCloud coverageVisibilityPressureHumidity
19-Apr-2024 06:00Clear Sky14°C2 mph, W0%10000m1024hPa81%
19-Apr-2024 09:00Clear Sky20°C4 mph, SE0%10000m1022hPa55%
19-Apr-2024 12:00Clear Sky26°C4 mph, SE0%10000m1018hPa34%
19-Apr-2024 15:00Clear Sky21°C4 mph, E1%10000m1019hPa53%
19-Apr-2024 18:00Few Clouds15°C2 mph, N12%10000m1022hPa75%
19-Apr-2024 21:00Clear Sky14°C4 mph, NW2%10000m1022hPa81%
20-Apr-2024 00:00Clear Sky13°C4 mph, NW1%10000m1021hPa83%
20-Apr-2024 03:00Clear Sky12°C4 mph, W0%10000m1020hPa81%
20-Apr-2024 06:00Clear Sky18°C4 mph, W0%10000m1019hPa57%
20-Apr-2024 09:00Clear Sky28°C2 mph, SW0%10000m1016hPa26%
20-Apr-2024 12:00Clear Sky30°C4 mph, SE1%10000m1013hPa20%
20-Apr-2024 15:00Clear Sky23°C4 mph, E0%10000m1014hPa48%
20-Apr-2024 18:00Clear Sky16°C2 mph, NW2%10000m1018hPa70%
20-Apr-2024 21:00Clear Sky15°C4 mph, NW2%10000m1018hPa68%
21-Apr-2024 00:00Clear Sky14°C4 mph, NW1%10000m1018hPa53%
21-Apr-2024 03:00Clear Sky13°C7 mph, W1%10000m1018hPa54%
21-Apr-2024 06:00Clear Sky19°C4 mph, W0%10000m1018hPa45%
21-Apr-2024 09:00Clear Sky29°C2 mph, S0%10000m1015hPa24%
21-Apr-2024 12:00Clear Sky31°C4 mph, SE0%10000m1012hPa19%
21-Apr-2024 15:00Clear Sky23°C7 mph, E5%10000m1013hPa47%
21-Apr-2024 18:00Few Clouds16°C2 mph, N16%10000m1018hPa71%
21-Apr-2024 21:00Scattered Clouds15°C4 mph, NW33%10000m1019hPa74%
22-Apr-2024 00:00Scattered Clouds15°C4 mph, NW43%10000m1018hPa68%
22-Apr-2024 03:00Few Clouds15°C7 mph, NW20%10000m1018hPa64%
22-Apr-2024 06:00Scattered Clouds20°C4 mph, NW29%10000m1018hPa45%
22-Apr-2024 09:00Scattered Clouds30°C4 mph, W41%10000m1015hPa20%
22-Apr-2024 12:00Scattered Clouds32°C7 mph, W26%10000m1012hPa15%
22-Apr-2024 15:00Few Clouds24°C2 mph, NE17%10000m1014hPa41%
22-Apr-2024 18:00Few Clouds16°C2 mph, E23%10000m1019hPa87%
22-Apr-2024 21:00Scattered Clouds16°C2 mph, NE35%10000m1019hPa91%
23-Apr-2024 00:00Scattered Clouds15°C0 mph, NE49%10000m1019hPa92%
23-Apr-2024 03:00Scattered Clouds15°C2 mph, NE46%10000m1020hPa90%
23-Apr-2024 06:00Broken Clouds18°C2 mph, NE51%10000m1021hPa78%
23-Apr-2024 09:00Few Clouds26°C2 mph, NE11%10000m1018hPa41%
23-Apr-2024 12:00Clear Sky29°C4 mph, SE9%10000m1014hPa28%
23-Apr-2024 15:00Broken Clouds20°C11 mph, E57%10000m1016hPa73%
23-Apr-2024 18:00Broken Clouds17°C4 mph, NE70%10000m1020hPa93%
23-Apr-2024 21:00Broken Clouds15°C2 mph, NE51%10000m1020hPa98%
24-Apr-2024 00:00Broken Clouds16°C2 mph, N70%10000m1019hPa91%
24-Apr-2024 03:00Overcast Clouds14°C4 mph, N100%10000m1019hPa97%